Home   Weather   Cordova   Past weeks
Flag for USA

Past Weather in Cordova, Tennessee, USA — Yesterday and Last 2 Weeks

Currently: 81 °F. Mostly cloudy. (Weather station: Olive Branch Airport, USA). See more current weather

Past Weather in Cordova — Graph

°F

Cordova Temperature Yesterday

Maximum temperature yesterday: 88 °F (at 4:50 pm)
Minimum temperature yesterday: 70 °F (at 3:35 am)
Average temperature yesterday: 77 °F

High & Low Weather Summary for the Past Weeks

 TemperatureHumidityPressure
High88 °F (May 19, 3:36 pm)100% (May 8, 12:55 am)30.03 "Hg (May 8, 12:55 am)
Low54 °F (May 11, 5:35 am)32% (May 11, 5:50 pm)29.61 "Hg (May 8, 5:50 pm)
Average71 °F79%29.84 "Hg
* Reported May 7 12:50 pm — May 22 12:50 pm, Cordova. Weather by CustomWeather, © 2024

Note: Actual official high and low records may vary slightly from our data, if they occured in-between our weather recording intervals... More about our weather records

Cordova Weather History for the Previous 24 Hours

Scroll right to see more
 ConditionsComfort  
Time TempWeatherWind HumidityBarometerVisibility
12:50 pm
Wed, May 22
81 °FMostly cloudy.9 mph70%29.92 "Hg10 mi
11:50 am82 °FScattered clouds.15 mph66%29.92 "Hg10 mi
10:50 am82 °FScattered clouds.3 mph66%29.91 "Hg10 mi
9:50 am79 °FPartly sunny.20 mph74%29.92 "Hg10 mi
8:50 am77 °FPartly sunny.16 mph79%29.93 "Hg10 mi
7:50 am75 °FScattered clouds.12 mph78%29.92 "Hg10 mi
6:50 am75 °FPartly sunny.12 mph78%29.91 "Hg10 mi
6:35 am75 °FOvercast.10 mph78%29.91 "Hg10 mi
6:15 am73 °FMostly cloudy.10 mph78%29.91 "Hg10 mi
5:55 am73 °FPartly sunny.8 mph78%29.90 "Hg10 mi
5:35 am73 °FBroken clouds.8 mph78%29.89 "Hg10 mi
5:15 am73 °FMostly cloudy.8 mph78%29.89 "Hg10 mi
4:55 am73 °FMostly cloudy.8 mph78%29.88 "Hg10 mi
4:35 am73 °FOvercast.9 mph78%29.88 "Hg10 mi
4:15 am75 °FPassing clouds.14 mph69%29.87 "Hg10 mi
3:55 am73 °FPartly cloudy.10 mph74%29.86 "Hg10 mi
3:15 am75 °FPassing clouds.15 mph69%29.86 "Hg10 mi
2:55 am75 °FPassing clouds.13 mph69%29.87 "Hg10 mi
2:15 am75 °FPartly cloudy.15 mph69%29.86 "Hg10 mi
1:35 am77 °FWarm.17 mph65%29.84 "Hg10 mi
1:15 am77 °FPassing clouds.16 mph65%29.85 "Hg10 mi
12:55 am77 °FPassing clouds.14 mph65%29.87 "Hg10 mi
12:15 am77 °FOvercast.10 mph69%29.90 "Hg10 mi
11:55 pm
Tue, May 21
77 °FOvercast.10 mph69%29.89 "Hg10 mi
11:35 pm77 °FWarm.9 mph69%29.90 "Hg10 mi
11:15 pm77 °FWarm.8 mph69%29.91 "Hg10 mi
10:55 pm77 °FWarm.6 mph69%29.91 "Hg10 mi
10:35 pm77 °FClear.5 mph69%29.91 "Hg10 mi
10:15 pm77 °FClear.6 mph69%29.91 "Hg10 mi
9:35 pm79 °FClear.9 mph65%29.87 "Hg10 mi
9:15 pm79 °FClear.12 mph65%29.83 "Hg10 mi
7:50 pm81 °FClear.12 mph62%29.81 "Hg10 mi
6:50 pm82 °FSunny.9 mph58%29.82 "Hg10 mi
5:50 pm84 °FScattered clouds.10 mph51%29.85 "Hg10 mi
4:50 pm88 °FScattered clouds.16 mph49%29.85 "Hg10 mi
3:50 pm86 °FPartly sunny.16 mph49%29.86 "Hg10 mi
2:50 pm86 °FBroken clouds.15 mph49%29.87 "Hg10 mi
Weather by CustomWeather, © 2024

See weather overview